Time;durP1;ratioP1;P1;durP2;ratioP2;P2;SDS_P1;SDS_P2;PMS_P1;PMS_P2;Temp;Humidity;BMP_temperature;BMP_pressure;BME280_temperature;BME280_humidity;BME280_pressure;Samples;Min_cycle;Max_cycle;Signal;HPM_P1;HPM_P2
2023/08/26 00:02:12;;;;;;;3.70;2.50;;;;;;;;;;5061801;27;89901;-59
2023/08/26 00:04:41;;;;;;;3.83;2.67;;;;;;;;;;5062431;27;88668;-60
2023/08/26 00:07:09;;;;;;;2.97;2.37;;;;;;;;;;5061189;27;87643;-59
2023/08/26 00:09:39;;;;;;;4.07;2.63;;;;;;;;;;5061699;27;88525;-60
2023/08/26 00:12:09;;;;;;;2.60;2.20;;;;;;;;;;5062420;27;88059;-59
2023/08/26 00:14:37;;;;;;;2.37;2.03;;;;;;;;;;5061923;27;88810;-60
2023/08/26 00:17:06;;;;;;;2.10;1.90;;;;;;;;;;5061326;27;87634;-59
2023/08/26 00:19:35;;;;;;;7.60;2.60;;;;;;;;;;5061068;27;89478;-60
2023/08/26 00:22:05;;;;;;;4.93;2.37;;;;;;;;;;5062069;27;89063;-59
2023/08/26 00:24:34;;;;;;;3.50;1.80;;;;;;;;;;5062126;27;89714;-60
2023/08/26 00:27:03;;;;;;;3.37;1.80;;;;;;;;;;5061193;27;87762;-60
2023/08/26 00:29:33;;;;;;;2.60;1.90;;;;;;;;;;5061333;27;89702;-60
2023/08/26 00:32:01;;;;;;;2.00;1.80;;;;;;;;;;5061548;27;89206;-59
2023/08/26 00:34:31;;;;;;;2.30;1.67;;;;;;;;;;5061458;27;88739;-59
2023/08/26 00:37:00;;;;;;;1.80;1.57;;;;;;;;;;5061694;27;87651;-60
2023/08/26 00:39:28;;;;;;;2.17;1.67;;;;;;;;;;5061608;27;89555;-59
2023/08/26 00:41:57;;;;;;;1.47;1.33;;;;;;;;;;5060818;27;89058;-59
2023/08/26 00:44:25;;;;;;;1.97;1.67;;;;;;;;;;5061862;27;88683;-59
2023/08/26 00:46:56;;;;;;;3.97;2.13;;;;;;;;;;5061896;27;87616;-59
2023/08/26 00:49:24;;;;;;;3.13;1.53;;;;;;;;;;5061703;27;89700;-60
2023/08/26 00:51:54;;;;;;;1.20;1.03;;;;;;;;;;5060442;27;88972;-59
2023/08/26 00:54:22;;;;;;;2.40;1.57;;;;;;;;;;5060762;27;87549;-60
2023/08/26 00:56:50;;;;;;;3.57;1.77;;;;;;;;;;5060989;27;87572;-59
2023/08/26 00:59:19;;;;;;;3.30;2.03;;;;;;;;;;5060949;27;89551;-59
2023/08/26 01:01:47;;;;;;;2.00;1.53;;;;;;;;;;5060658;27;88976;-60
2023/08/26 01:04:17;;;;;;;2.77;1.83;;;;;;;;;;5061096;27;87371;-60
2023/08/26 01:06:48;;;;;;;3.00;1.30;;;;;;;;;;5061299;27;87587;-59
2023/08/26 01:09:17;;;;;;;2.47;1.80;;;;;;;;;;5060682;27;88608;-59
2023/08/26 01:11:49;;;;;;;2.50;1.47;;;;;;;;;;5060640;27;89197;-60
2023/08/26 01:14:18;;;;;;;3.27;1.77;;;;;;;;;;5060538;27;88868;-59
2023/08/26 01:16:48;;;;;;;4.10;1.23;;;;;;;;;;5060792;27;87833;-59
2023/08/26 01:19:22;;;;;;;3.30;1.60;;;;;;;;;;5060943;27;89782;-59
2023/08/26 01:21:51;;;;;;;1.70;1.20;;;;;;;;;;5059834;27;87606;-59
2023/08/26 01:24:21;;;;;;;1.63;1.50;;;;;;;;;;5060732;27;87736;-59
2023/08/26 01:26:49;;;;;;;1.83;1.23;;;;;;;;;;5061146;27;87806;-60
2023/08/26 01:29:17;;;;;;;1.23;1.10;;;;;;;;;;5061135;27;88575;-60
2023/08/26 01:31:47;;;;;;;1.33;1.17;;;;;;;;;;5061011;27;89205;-59
2023/08/26 01:34:18;;;;;;;1.67;1.57;;;;;;;;;;5061380;27;88831;-59
2023/08/26 01:36:47;;;;;;;1.20;1.10;;;;;;;;;;5061383;27;87425;-60
2023/08/26 01:39:17;;;;;;;1.67;1.10;;;;;;;;;;5060490;27;89769;-59
2023/08/26 01:41:51;;;;;;;1.50;1.13;;;;;;;;;;5059621;27;90058;-59
2023/08/26 01:44:20;;;;;;;2.43;1.50;;;;;;;;;;5059888;27;88713;-59
2023/08/26 01:46:48;;;;;;;2.10;1.70;;;;;;;;;;5060724;27;87512;-60
2023/08/26 01:49:19;;;;;;;3.13;2.27;;;;;;;;;;5060064;27;89555;-60
2023/08/26 01:51:48;;;;;;;3.53;1.70;;;;;;;;;;5059785;27;89179;-59
2023/08/26 01:54:16;;;;;;;3.23;2.70;;;;;;;;;;5060077;27;87682;-59
2023/08/26 01:56:44;;;;;;;3.10;1.70;;;;;;;;;;5060367;27;87460;-59
2023/08/26 01:59:14;;;;;;;5.43;2.47;;;;;;;;;;5060563;27;89682;-59
2023/08/26 02:01:42;;;;;;;3.23;2.37;;;;;;;;;;5060155;27;88987;-59
2023/08/26 02:04:11;;;;;;;3.50;2.07;;;;;;;;;;5059907;27;87947;-59
2023/08/26 02:06:42;;;;;;;5.47;2.50;;;;;;;;;;5059855;27;88010;-59
2023/08/26 02:09:13;;;;;;;2.83;2.30;;;;;;;;;;5059641;27;88547;-60
2023/08/26 02:11:41;;;;;;;2.43;2.13;;;;;;;;;;5059349;27;88392;-60
2023/08/26 02:14:11;;;;;;;4.27;1.97;;;;;;;;;;5063468;27;87350;-60
2023/08/26 02:16:41;;;;;;;2.37;1.97;;;;;;;;;;5063707;27;87860;-60
2023/08/26 02:19:09;;;;;;;3.20;1.83;;;;;;;;;;5063690;27;89674;-60
2023/08/26 02:21:38;;;;;;;2.57;1.70;;;;;;;;;;5062726;27;89142;-60
2023/08/26 02:24:07;;;;;;;2.63;1.60;;;;;;;;;;5063104;27;88799;-59
2023/08/26 02:26:37;;;;;;;2.00;1.50;;;;;;;;;;5063828;27;87724;-59
2023/08/26 02:29:07;;;;;;;3.37;2.37;;;;;;;;;;5063355;27;89300;-59
2023/08/26 02:31:37;;;;;;;2.80;1.80;;;;;;;;;;5063237;27;89030;-59
2023/08/26 02:34:07;;;;;;;3.97;2.27;;;;;;;;;;5062953;27;89181;-60
2023/08/26 02:36:36;;;;;;;2.77;2.00;;;;;;;;;;5063176;27;87466;-60
2023/08/26 02:39:06;;;;;;;3.47;1.90;;;;;;;;;;5063068;27;89675;-60
2023/08/26 02:41:35;;;;;;;4.63;2.10;;;;;;;;;;5063092;27;89057;-59
2023/08/26 02:44:04;;;;;;;5.03;2.43;;;;;;;;;;5062570;27;88937;-59
2023/08/26 02:46:33;;;;;;;4.70;1.80;;;;;;;;;;5063987;27;87591;-60
2023/08/26 02:49:02;;;;;;;3.03;1.40;;;;;;;;;;5063280;27;89864;-59
2023/08/26 02:51:32;;;;;;;1.73;1.43;;;;;;;;;;5063000;27;89099;-59
2023/08/26 02:54:02;;;;;;;2.23;1.50;;;;;;;;;;5062806;27;87598;-60
2023/08/26 02:56:30;;;;;;;2.80;2.10;;;;;;;;;;5062914;27;87994;-59
2023/08/26 02:59:01;;;;;;;3.57;1.20;;;;;;;;;;5062510;27;89644;-59
2023/08/26 03:01:31;;;;;;;3.40;1.77;;;;;;;;;;5063192;27;89114;-59
2023/08/26 03:03:59;;;;;;;2.77;1.87;;;;;;;;;;5063250;27;89150;-59
2023/08/26 03:06:28;;;;;;;4.50;1.77;;;;;;;;;;5063057;27;87645;-59
2023/08/26 03:08:58;;;;;;;2.53;1.60;;;;;;;;;;5062039;27;88755;-59
2023/08/26 03:11:28;;;;;;;1.70;1.30;;;;;;;;;;5062628;27;88083;-60
2023/08/26 03:13:56;;;;;;;3.60;1.67;;;;;;;;;;5063267;27;88512;-59
2023/08/26 03:16:26;;;;;;;3.00;1.90;;;;;;;;;;5062779;27;87670;-59
2023/08/26 03:18:55;;;;;;;2.00;1.50;;;;;;;;;;5062535;27;89723;-59
2023/08/26 03:21:25;;;;;;;3.63;1.97;;;;;;;;;;5061362;27;90045;-59
2023/08/26 03:23:54;;;;;;;4.57;2.50;;;;;;;;;;5061462;27;89073;-59
2023/08/26 03:26:24;;;;;;;3.20;2.03;;;;;;;;;;5062511;27;87533;-59
2023/08/26 03:28:54;;;;;;;2.63;1.73;;;;;;;;;;5062670;27;88344;-59
2023/08/26 03:31:24;;;;;;;2.77;1.87;;;;;;;;;;5062252;27;89942;-59
2023/08/26 03:33:53;;;;;;;4.57;1.20;;;;;;;;;;5062284;27;87617;-60
2023/08/26 03:36:21;;;;;;;2.93;1.90;;;;;;;;;;5062608;27;87414;-59
2023/08/26 03:38:52;;;;;;;2.13;1.43;;;;;;;;;;5062609;27;90143;-59
2023/08/26 03:41:20;;;;;;;3.23;1.63;;;;;;;;;;5062266;27;88384;-60
2023/08/26 03:43:50;;;;;;;2.77;1.37;;;;;;;;;;5062324;27;88923;-59
2023/08/26 03:46:19;;;;;;;5.83;1.93;;;;;;;;;;5061682;27;87908;-59
2023/08/26 03:48:48;;;;;;;2.13;1.93;;;;;;;;;;5061616;27;88495;-60
2023/08/26 03:51:17;;;;;;;2.40;1.50;;;;;;;;;;5061660;27;88043;-59
2023/08/26 03:53:45;;;;;;;1.97;1.63;;;;;;;;;;5062451;27;87732;-59
2023/08/26 03:56:15;;;;;;;2.10;1.77;;;;;;;;;;5062490;27;87631;-59
2023/08/26 03:58:44;;;;;;;4.30;2.10;;;;;;;;;;5061495;27;88539;-59
2023/08/26 04:01:14;;;;;;;3.57;2.10;;;;;;;;;;5061995;27;88061;-59
2023/08/26 04:03:45;;;;;;;4.50;3.03;;;;;;;;;;5062060;27;87778;-59
2023/08/26 04:06:15;;;;;;;3.87;2.20;;;;;;;;;;5062317;27;87620;-59
2023/08/26 04:08:44;;;;;;;3.90;2.40;;;;;;;;;;5061866;27;87516;-60
2023/08/26 04:11:12;;;;;;;4.27;2.60;;;;;;;;;;5061147;27;90131;-59
2023/08/26 04:13:45;;;;;;;3.20;2.80;;;;;;;;;;5061720;27;88979;-59
2023/08/26 04:16:16;;;;;;;4.13;2.40;;;;;;;;;;5062547;27;87172;-59
2023/08/26 04:18:46;;;;;;;3.27;2.37;;;;;;;;;;5062068;27;89816;-59
2023/08/26 04:21:17;;;;;;;3.37;2.37;;;;;;;;;;5061888;27;87846;-60
2023/08/26 04:23:47;;;;;;;4.63;2.33;;;;;;;;;;5061760;27;87751;-59
2023/08/26 04:26:15;;;;;;;3.53;2.60;;;;;;;;;;5061877;27;87596;-60
2023/08/26 04:28:44;;;;;;;5.87;3.37;;;;;;;;;;5061341;27;89650;-59
2023/08/26 04:31:12;;;;;;;4.00;2.73;;;;;;;;;;5061329;27;88132;-59
2023/08/26 04:33:43;;;;;;;3.47;2.40;;;;;;;;;;5061395;27;87872;-59
2023/08/26 04:36:11;;;;;;;4.30;2.60;;;;;;;;;;5060050;27;87852;-59
2023/08/26 04:38:41;;;;;;;4.27;3.10;;;;;;;;;;5061653;27;87214;-59
2023/08/26 04:41:10;;;;;;;4.23;2.80;;;;;;;;;;5061389;27;89128;-59
2023/08/26 04:43:40;;;;;;;4.47;2.90;;;;;;;;;;5060906;27;89008;-60
2023/08/26 04:46:09;;;;;;;3.23;2.43;;;;;;;;;;5061862;27;87574;-59
2023/08/26 04:48:37;;;;;;;5.10;2.77;;;;;;;;;;5060757;27;88574;-59
2023/08/26 04:51:07;;;;;;;4.33;2.77;;;;;;;;;;5060958;27;89187;-59
2023/08/26 04:53:36;;;;;;;3.20;2.50;;;;;;;;;;5060626;27;87663;-59
2023/08/26 04:56:06;;;;;;;3.80;2.60;;;;;;;;;;5061384;27;87605;-59
2023/08/26 04:58:37;;;;;;;2.83;2.20;;;;;;;;;;5061045;27;89269;-59
2023/08/26 05:01:05;;;;;;;3.17;2.13;;;;;;;;;;5060303;27;88877;-59
2023/08/26 05:03:34;;;;;;;3.70;2.17;;;;;;;;;;5060833;27;89916;-60
2023/08/26 05:06:03;;;;;;;3.57;2.10;;;;;;;;;;5061447;27;87818;-59
2023/08/26 05:08:34;;;;;;;2.57;1.67;;;;;;;;;;5060445;27;88344;-59
2023/08/26 05:11:03;;;;;;;2.60;2.10;;;;;;;;;;5060712;27;89153;-59
2023/08/26 05:13:33;;;;;;;2.73;2.17;;;;;;;;;;5060598;27;88026;-59
2023/08/26 05:16:02;;;;;;;5.20;2.27;;;;;;;;;;5060876;27;87523;-59
2023/08/26 05:18:31;;;;;;;3.37;1.77;;;;;;;;;;5060470;27;88640;-59
2023/08/26 05:20:59;;;;;;;4.00;2.37;;;;;;;;;;5061073;27;89389;-59
2023/08/26 05:23:29;;;;;;;2.37;1.37;;;;;;;;;;5060792;27;88806;-59
2023/08/26 05:25:58;;;;;;;2.27;1.47;;;;;;;;;;5059758;27;87922;-59
2023/08/26 05:28:27;;;;;;;2.70;1.43;;;;;;;;;;5060089;27;87477;-59
2023/08/26 05:30:56;;;;;;;2.33;1.33;;;;;;;;;;5060648;27;88064;-59
2023/08/26 05:33:27;;;;;;;4.13;1.50;;;;;;;;;;5060222;27;88516;-59
2023/08/26 05:35:56;;;;;;;2.23;1.37;;;;;;;;;;5061201;27;87429;-59
2023/08/26 05:38:25;;;;;;;3.47;2.13;;;;;;;;;;5060551;27;88005;-59
2023/08/26 05:40:54;;;;;;;2.80;1.37;;;;;;;;;;5059900;27;87967;-59
2023/08/26 05:43:23;;;;;;;3.87;1.70;;;;;;;;;;5060094;27;87344;-59
2023/08/26 05:45:52;;;;;;;3.43;1.80;;;;;;;;;;5060589;27;87602;-59
2023/08/26 05:48:20;;;;;;;2.43;1.60;;;;;;;;;;5062309;27;88398;-59
2023/08/26 05:50:50;;;;;;;3.33;1.70;;;;;;;;;;5063433;27;90115;-59
2023/08/26 05:53:21;;;;;;;2.47;1.50;;;;;;;;;;5063306;27;89828;-59
2023/08/26 05:55:50;;;;;;;2.20;1.83;;;;;;;;;;5064234;27;87369;-59
2023/08/26 05:58:18;;;;;;;3.30;1.37;;;;;;;;;;5063465;27;89689;-59
2023/08/26 06:00:48;;;;;;;1.60;1.13;;;;;;;;;;5063694;27;89400;-59
2023/08/26 06:03:19;;;;;;;1.87;1.03;;;;;;;;;;5063388;27;88883;-59
2023/08/26 06:05:47;;;;;;;2.77;1.10;;;;;;;;;;5063967;27;87478;-60
2023/08/26 06:08:15;;;;;;;1.60;1.30;;;;;;;;;;5064457;27;88512;-59
2023/08/26 06:10:45;;;;;;;1.23;1.10;;;;;;;;;;5063252;27;88313;-59
2023/08/26 06:13:14;;;;;;;1.87;1.00;;;;;;;;;;5063925;27;88815;-59
2023/08/26 06:15:42;;;;;;;1.83;1.23;;;;;;;;;;5062603;27;87926;-59
2023/08/26 06:18:14;;;;;;;0.87;0.87;;;;;;;;;;5062923;27;89716;-59
2023/08/26 06:20:42;;;;;;;1.27;0.83;;;;;;;;;;5063049;27;89152;-60
2023/08/26 06:23:12;;;;;;;1.00;0.90;;;;;;;;;;5063354;27;89204;-59
2023/08/26 06:25:52;;;;;;;4.20;1.17;;;;;;;;;;5063709;27;87338;-59
2023/08/26 06:28:20;;;;;;;1.13;1.00;;;;;;;;;;5064033;27;89605;-59
2023/08/26 06:30:48;;;;;;;2.10;1.20;;;;;;;;;;5062654;27;89136;-60
2023/08/26 06:33:18;;;;;;;2.23;1.00;;;;;;;;;;5063467;27;88744;-59
2023/08/26 06:35:47;;;;;;;1.53;0.60;;;;;;;;;;5063752;27;87592;-59
2023/08/26 06:38:19;;;;;;;2.03;1.00;;;;;;;;;;5063261;27;87504;-59
2023/08/26 06:40:56;;;;;;;1.77;1.13;;;;;;;;;;5062780;27;89230;-59
2023/08/26 06:43:25;;;;;;;1.10;1.00;;;;;;;;;;5062522;27;90074;-59
2023/08/26 06:45:56;;;;;;;0.97;0.90;;;;;;;;;;5062691;27;87601;-59
2023/08/26 06:48:26;;;;;;;1.50;1.10;;;;;;;;;;5063074;27;89828;-59
2023/08/26 06:50:56;;;;;;;1.03;0.90;;;;;;;;;;5062567;27;87497;-59
2023/08/26 06:53:25;;;;;;;1.97;1.00;;;;;;;;;;5062392;27;88800;-59
2023/08/26 06:55:54;;;;;;;1.13;0.80;;;;;;;;;;5063245;27;87647;-59
2023/08/26 06:58:23;;;;;;;0.83;0.70;;;;;;;;;;5063072;27;89611;-59
2023/08/26 07:00:53;;;;;;;1.03;0.87;;;;;;;;;;5062937;27;87362;-59
2023/08/26 07:03:22;;;;;;;1.67;0.80;;;;;;;;;;5062799;27;88895;-59
2023/08/26 07:05:51;;;;;;;1.47;0.63;;;;;;;;;;5061690;27;88042;-59
2023/08/26 07:08:20;;;;;;;1.17;0.70;;;;;;;;;;5062867;27;88692;-59
2023/08/26 07:10:48;;;;;;;2.50;1.20;;;;;;;;;;5062820;27;89300;-59
2023/08/26 07:13:18;;;;;;;1.40;1.00;;;;;;;;;;5062470;27;87349;-59
2023/08/26 07:15:47;;;;;;;1.60;0.77;;;;;;;;;;5062177;27;87656;-59
2023/08/26 07:18:15;;;;;;;1.83;0.73;;;;;;;;;;5062519;27;87997;-59
2023/08/26 07:20:47;;;;;;;2.70;0.87;;;;;;;;;;5061995;27;89105;-59
2023/08/26 07:23:17;;;;;;;0.60;0.60;;;;;;;;;;5062568;27;88968;-59
2023/08/26 07:25:45;;;;;;;2.10;0.73;;;;;;;;;;5062099;27;87580;-59
2023/08/26 07:28:14;;;;;;;0.67;0.63;;;;;;;;;;5062190;27;89918;-59
2023/08/26 07:30:42;;;;;;;0.90;0.70;;;;;;;;;;5060853;27;90034;-59
2023/08/26 07:33:11;;;;;;;1.17;0.87;;;;;;;;;;5062364;27;89671;-59
2023/08/26 07:35:39;;;;;;;1.00;0.67;;;;;;;;;;5062711;27;87634;-59
2023/08/26 07:38:08;;;;;;;0.77;0.77;;;;;;;;;;5062469;27;88366;-59
2023/08/26 07:40:38;;;;;;;0.70;0.53;;;;;;;;;;5062668;27;87834;-59
2023/08/26 07:43:08;;;;;;;2.00;0.97;;;;;;;;;;5061379;27;88830;-59
2023/08/26 07:45:38;;;;;;;1.63;0.93;;;;;;;;;;5062010;27;87544;-59
2023/08/26 07:48:07;;;;;;;0.57;0.50;;;;;;;;;;5062661;27;88726;-59
2023/08/26 07:50:38;;;;;;;0.80;0.80;;;;;;;;;;5060270;27;87332;-59
2023/08/26 07:53:07;;;;;;;1.10;0.70;;;;;;;;;;5061909;27;87709;-59
2023/08/26 07:55:35;;;;;;;0.90;0.80;;;;;;;;;;5062231;27;87800;-59
2023/08/26 07:58:05;;;;;;;0.93;0.80;;;;;;;;;;5060564;27;89663;-59
2023/08/26 08:00:34;;;;;;;1.87;0.80;;;;;;;;;;5060923;27;88939;-59
2023/08/26 08:03:07;;;;;;;0.67;0.67;;;;;;;;;;5061962;27;88955;-59
2023/08/26 08:05:37;;;;;;;0.83;0.70;;;;;;;;;;5061971;27;87662;-59
2023/08/26 08:08:06;;;;;;;0.90;0.90;;;;;;;;;;5062041;27;89732;-59
2023/08/26 08:10:34;;;;;;;1.20;0.57;;;;;;;;;;5060765;27;88011;-59
2023/08/26 08:13:03;;;;;;;1.17;1.00;;;;;;;;;;5060797;27;88903;-59
2023/08/26 08:15:33;;;;;;;1.50;0.83;;;;;;;;;;5061633;27;87533;-59
2023/08/26 08:18:04;;;;;;;1.63;1.03;;;;;;;;;;5061423;27;88434;-59
2023/08/26 08:20:32;;;;;;;1.30;0.97;;;;;;;;;;5061571;27;89246;-59
2023/08/26 08:23:01;;;;;;;1.07;0.80;;;;;;;;;;5062087;27;89820;-59
2023/08/26 08:25:29;;;;;;;1.47;0.73;;;;;;;;;;5062161;27;87618;-59
2023/08/26 08:27:58;;;;;;;0.77;0.77;;;;;;;;;;5061321;27;88364;-59
2023/08/26 08:30:26;;;;;;;1.07;0.97;;;;;;;;;;5060865;27;87782;-59
2023/08/26 08:32:56;;;;;;;1.07;0.77;;;;;;;;;;5060919;27;87858;-59
2023/08/26 08:35:26;;;;;;;1.13;0.77;;;;;;;;;;5061982;27;87472;-59
2023/08/26 08:37:55;;;;;;;0.90;0.80;;;;;;;;;;5061346;27;88558;-59
2023/08/26 08:40:25;;;;;;;1.07;0.80;;;;;;;;;;5061210;27;89143;-59
2023/08/26 08:42:53;;;;;;;0.70;0.70;;;;;;;;;;5060364;27;87746;-59
2023/08/26 08:45:22;;;;;;;0.97;0.60;;;;;;;;;;5061111;27;87796;-59
2023/08/26 08:47:52;;;;;;;1.03;0.70;;;;;;;;;;5060726;27;89534;-59
2023/08/26 08:50:22;;;;;;;2.13;0.80;;;;;;;;;;5061103;27;89209;-59
2023/08/26 08:52:51;;;;;;;1.43;0.73;;;;;;;;;;5060991;27;87867;-59
2023/08/26 08:55:19;;;;;;;0.63;0.53;;;;;;;;;;5060822;27;87556;-59
2023/08/26 08:57:49;;;;;;;1.63;0.73;;;;;;;;;;5060515;27;88554;-59
2023/08/26 09:00:20;;;;;;;1.10;0.63;;;;;;;;;;5060588;27;89164;-59
2023/08/26 09:02:48;;;;;;;0.97;0.80;;;;;;;;;;5061003;27;88907;-59
2023/08/26 09:05:18;;;;;;;1.17;0.70;;;;;;;;;;5061527;27;87555;-59
2023/08/26 09:07:48;;;;;;;0.67;0.60;;;;;;;;;;5061530;27;89611;-59
2023/08/26 09:10:18;;;;;;;1.27;0.80;;;;;;;;;;5060511;27;89685;-60
2023/08/26 09:12:46;;;;;;;1.13;0.63;;;;;;;;;;5061079;27;88635;-59
2023/08/26 09:15:16;;;;;;;0.77;0.77;;;;;;;;;;5060707;27;88011;-59
2023/08/26 09:17:47;;;;;;;1.47;0.60;;;;;;;;;;5060756;27;89622;-59
2023/08/26 09:20:16;;;;;;;1.73;0.80;;;;;;;;;;5060642;27;88009;-59
2023/08/26 09:22:44;;;;;;;0.33;0.33;;;;;;;;;;5060070;27;87468;-59
2023/08/26 09:25:15;;;;;;;1.00;0.70;;;;;;;;;;5060170;27;87574;-59
2023/08/26 09:27:44;;;;;;;0.63;0.47;;;;;;;;;;5060931;27;88351;-59
2023/08/26 09:30:14;;;;;;;0.97;0.80;;;;;;;;;;5060224;27;88088;-59
2023/08/26 09:32:48;;;;;;;0.60;0.60;;;;;;;;;;5060478;27;90683;-59
2023/08/26 09:35:18;;;;;;;1.80;0.87;;;;;;;;;;5060491;27;87933;-59
2023/08/26 09:38:06;;;;;;;0.70;0.70;;;;;;;;;;5060221;27;91314;-59
2023/08/26 09:40:36;;;;;;;0.70;0.70;;;;;;;;;;5060551;27;89084;-59
2023/08/26 09:43:05;;;;;;;2.10;0.60;;;;;;;;;;5059238;27;87778;-59
2023/08/26 09:45:39;;;;;;;0.93;0.60;;;;;;;;;;5038273;27;87758;-59
2023/08/26 09:48:08;;;;;;;0.60;0.60;;;;;;;;;;5037631;28;89602;-59
2023/08/26 09:50:36;;;;;;;1.03;0.87;;;;;;;;;;5036722;27;88031;-59
2023/08/26 09:53:05;;;;;;;0.60;0.60;;;;;;;;;;5039423;27;87662;-59
2023/08/26 09:55:33;;;;;;;0.43;0.43;;;;;;;;;;5053633;27;87736;-60
2023/08/26 09:58:03;;;;;;;0.60;0.60;;;;;;;;;;5057489;27;87695;-59
2023/08/26 10:00:32;;;;;;;1.13;0.60;;;;;;;;;;5056451;27;89183;-60
2023/08/26 10:03:01;;;;;;;0.53;0.53;;;;;;;;;;5057137;27;88570;-59
2023/08/26 10:05:31;;;;;;;0.93;0.60;;;;;;;;;;5057445;27;87693;-59
2023/08/26 10:08:00;;;;;;;2.10;0.80;;;;;;;;;;5056928;27;88670;-59
2023/08/26 10:10:29;;;;;;;0.50;0.50;;;;;;;;;;5056670;27;89189;-59
2023/08/26 10:13:03;;;;;;;0.50;0.50;;;;;;;;;;5056231;27;88472;-59
2023/08/26 10:15:36;;;;;;;0.73;0.73;;;;;;;;;;5057504;27;87617;-59
2023/08/26 10:18:07;;;;;;;0.60;0.60;;;;;;;;;;5056886;27;89676;-59
2023/08/26 10:20:35;;;;;;;0.53;0.50;;;;;;;;;;5056378;27;87731;-60
2023/08/26 10:23:09;;;;;;;1.40;0.40;;;;;;;;;;5056152;27;87600;-59
2023/08/26 10:25:38;;;;;;;0.60;0.40;;;;;;;;;;5056153;27;88131;-59
2023/08/26 10:28:07;;;;;;;0.50;0.50;;;;;;;;;;5056838;27;89736;-59
2023/08/26 10:30:38;;;;;;;0.40;0.40;;;;;;;;;;5056304;27;88062;-60
2023/08/26 10:33:08;;;;;;;1.70;0.77;;;;;;;;;;5056514;27;87898;-59
2023/08/26 10:35:37;;;;;;;0.77;0.60;;;;;;;;;;5059784;27;87714;-59
2023/08/26 10:38:09;;;;;;;1.80;0.50;;;;;;;;;;5059993;27;90006;-59
2023/08/26 10:40:39;;;;;;;0.63;0.60;;;;;;;;;;5060361;27;88294;-59
2023/08/26 10:43:08;;;;;;;0.63;0.60;;;;;;;;;;5060228;27;87759;-60
2023/08/26 10:45:47;;;;;;;0.40;0.40;;;;;;;;;;5060803;27;88244;-59
2023/08/26 10:48:16;;;;;;;0.67;0.30;;;;;;;;;;5060172;27;88393;-59
2023/08/26 10:50:46;;;;;;;1.20;0.80;;;;;;;;;;5059101;27;89644;-59
2023/08/26 10:53:15;;;;;;;0.97;0.43;;;;;;;;;;5059246;27;88922;-59
2023/08/26 10:55:47;;;;;;;0.97;0.67;;;;;;;;;;5060218;27;87473;-59
2023/08/26 10:58:16;;;;;;;0.70;0.40;;;;;;;;;;5059533;27;88445;-60
2023/08/26 11:00:47;;;;;;;0.70;0.43;;;;;;;;;;5059911;27;88115;-59
2023/08/26 11:03:16;;;;;;;0.40;0.40;;;;;;;;;;5059968;27;88504;-61
2023/08/26 11:05:45;;;;;;;0.97;0.50;;;;;;;;;;5059674;27;87565;-59
2023/08/26 11:08:14;;;;;;;0.83;0.50;;;;;;;;;;5059432;27;88574;-59
2023/08/26 11:10:43;;;;;;;0.37;0.30;;;;;;;;;;5059098;27;89140;-59
2023/08/26 11:13:12;;;;;;;0.50;0.40;;;;;;;;;;5059880;27;88212;-59
2023/08/26 11:15:41;;;;;;;0.50;0.50;;;;;;;;;;5059643;27;88366;-59
2023/08/26 11:18:13;;;;;;;0.60;0.60;;;;;;;;;;5058963;27;88351;-59
2023/08/26 11:20:43;;;;;;;2.83;0.60;;;;;;;;;;5059058;27;88453;-59
2023/08/26 11:23:12;;;;;;;0.60;0.60;;;;;;;;;;5059397;27;87727;-59
2023/08/26 11:25:41;;;;;;;0.60;0.60;;;;;;;;;;5059520;27;87781;-59
2023/08/26 11:28:10;;;;;;;0.60;0.60;;;;;;;;;;5059441;27;89671;-59
2023/08/26 11:30:39;;;;;;;1.87;1.00;;;;;;;;;;5059408;27;89298;-59
2023/08/26 11:33:11;;;;;;;1.10;0.90;;;;;;;;;;5058771;27;88136;-59
2023/08/26 11:35:41;;;;;;;2.63;1.50;;;;;;;;;;5059334;27;87620;-59
2023/08/26 11:38:14;;;;;;;1.30;1.20;;;;;;;;;;5058638;27;88369;-59
2023/08/26 11:40:43;;;;;;;1.60;1.27;;;;;;;;;;5058845;27;89779;-59
2023/08/26 11:43:12;;;;;;;1.87;1.30;;;;;;;;;;5058737;27;89757;-59
2023/08/26 11:45:41;;;;;;;1.10;0.80;;;;;;;;;;5059733;27;87361;-59
2023/08/26 11:48:10;;;;;;;1.20;1.10;;;;;;;;;;5058867;27;88586;-59
2023/08/26 11:50:40;;;;;;;1.23;1.10;;;;;;;;;;5058863;27;88214;-59
2023/08/26 11:53:09;;;;;;;1.57;1.20;;;;;;;;;;5058280;27;88701;-59
2023/08/26 11:55:38;;;;;;;2.17;1.47;;;;;;;;;;5058664;27;87590;-59
2023/08/26 11:58:08;;;;;;;1.87;1.37;;;;;;;;;;5058912;27;89762;-59
2023/08/26 12:00:37;;;;;;;1.33;1.03;;;;;;;;;;5058776;27;89177;-59
2023/08/26 12:03:06;;;;;;;1.27;1.10;;;;;;;;;;5058519;27;88102;-59
2023/08/26 12:05:48;;;;;;;1.27;0.77;;;;;;;;;;5058671;27;87941;-59
2023/08/26 12:08:18;;;;;;;1.47;1.17;;;;;;;;;;5058617;27;89707;-59
2023/08/26 12:10:49;;;;;;;1.60;1.17;;;;;;;;;;5058735;27;87974;-59
2023/08/26 12:13:18;;;;;;;2.20;1.10;;;;;;;;;;5059140;27;87475;-59
2023/08/26 12:15:48;;;;;;;2.23;0.97;;;;;;;;;;5058848;27;87682;-59
2023/08/26 12:18:16;;;;;;;0.97;0.90;;;;;;;;;;5058334;27;89580;-59
2023/08/26 12:20:46;;;;;;;1.10;1.00;;;;;;;;;;5057788;27;88823;-59
2023/08/26 12:23:16;;;;;;;1.43;1.03;;;;;;;;;;5058745;27;88729;-59
2023/08/26 12:25:46;;;;;;;1.53;1.27;;;;;;;;;;5058659;27;87621;-59
2023/08/26 12:28:17;;;;;;;2.50;1.17;;;;;;;;;;5058772;27;88480;-59
2023/08/26 12:30:46;;;;;;;1.60;1.10;;;;;;;;;;5057945;27;89831;-59
2023/08/26 12:33:14;;;;;;;1.43;1.07;;;;;;;;;;5057538;27;89813;-60
2023/08/26 12:35:54;;;;;;;3.67;1.10;;;;;;;;;;5058201;27;87957;-59
2023/08/26 12:38:24;;;;;;;1.30;1.10;;;;;;;;;;5057661;27;89664;-59
2023/08/26 12:40:52;;;;;;;1.40;0.83;;;;;;;;;;5058619;27;88066;-59
2023/08/26 12:43:21;;;;;;;1.27;0.87;;;;;;;;;;5051805;27;88901;-59
2023/08/26 12:45:53;;;;;;;1.10;1.00;;;;;;;;;;5038293;28;87637;-59
2023/08/26 12:48:21;;;;;;;1.37;0.87;;;;;;;;;;5037895;27;89803;-60
2023/08/26 12:51:11;;;;;;;2.30;1.00;;;;;;;;;;5037118;28;88726;-59
2023/08/26 12:53:42;;;;;;;1.10;0.97;;;;;;;;;;5037593;28;88807;-59
2023/08/26 12:56:10;;;;;;;2.03;1.00;;;;;;;;;;5036942;27;88422;-59
2023/08/26 12:58:40;;;;;;;0.67;0.67;;;;;;;;;;5042899;27;89676;-59
2023/08/26 13:01:09;;;;;;;1.20;1.07;;;;;;;;;;5056688;27;88032;-59
2023/08/26 13:03:37;;;;;;;1.43;1.10;;;;;;;;;;5056652;27;89067;-59
2023/08/26 13:06:06;;;;;;;0.70;0.70;;;;;;;;;;5057425;27;87622;-59
2023/08/26 13:08:36;;;;;;;0.80;0.80;;;;;;;;;;5056912;27;89757;-59
2023/08/26 13:11:05;;;;;;;1.33;1.07;;;;;;;;;;5057742;27;87420;-59
2023/08/26 13:13:33;;;;;;;2.07;1.10;;;;;;;;;;5058228;27;89535;-59
2023/08/26 13:16:01;;;;;;;1.70;1.00;;;;;;;;;;5057871;27;87398;-59
2023/08/26 13:18:33;;;;;;;2.60;0.90;;;;;;;;;;5057502;27;89914;-59
2023/08/26 13:21:03;;;;;;;0.83;0.83;;;;;;;;;;5056734;27;89016;-59
2023/08/26 13:23:32;;;;;;;1.03;0.90;;;;;;;;;;5057826;27;89823;-59
2023/08/26 13:26:02;;;;;;;2.90;0.80;;;;;;;;;;5056638;27;87606;-59
2023/08/26 13:28:31;;;;;;;0.80;0.70;;;;;;;;;;5057099;27;88650;-59
2023/08/26 13:31:02;;;;;;;2.40;1.13;;;;;;;;;;5057100;27;88051;-59
2023/08/26 13:33:30;;;;;;;1.17;1.07;;;;;;;;;;5057310;27;87927;-59
2023/08/26 13:36:00;;;;;;;1.23;0.93;;;;;;;;;;5057124;27;87788;-59
2023/08/26 13:38:28;;;;;;;2.03;1.00;;;;;;;;;;5057441;27;88489;-59
2023/08/26 13:40:56;;;;;;;1.57;1.20;;;;;;;;;;5057354;27;89148;-59
2023/08/26 13:43:26;;;;;;;1.43;0.90;;;;;;;;;;5056282;27;87868;-58
2023/08/26 13:45:55;;;;;;;2.27;0.80;;;;;;;;;;5056532;27;87943;-59
2023/08/26 13:48:23;;;;;;;0.70;0.70;;;;;;;;;;5056820;27;89692;-58
2023/08/26 13:50:52;;;;;;;1.13;0.80;;;;;;;;;;5057214;27;89157;-59
2023/08/26 13:53:20;;;;;;;1.47;1.03;;;;;;;;;;5057100;27;87712;-59
2023/08/26 13:55:54;;;;;;;1.10;0.60;;;;;;;;;;5056846;27;87915;-59
2023/08/26 13:58:23;;;;;;;3.20;1.50;;;;;;;;;;5056931;27;87888;-59
2023/08/26 14:00:59;;;;;;;1.10;0.90;;;;;;;;;;5056791;27;88068;-59
2023/08/26 14:03:28;;;;;;;0.93;0.80;;;;;;;;;;5057695;27;88871;-59
2023/08/26 14:05:56;;;;;;;2.53;1.17;;;;;;;;;;5056852;27;87687;-59
2023/08/26 14:08:28;;;;;;;1.03;0.80;;;;;;;;;;5058213;27;89680;-60
2023/08/26 14:10:57;;;;;;;1.03;0.93;;;;;;;;;;5059985;27;89745;-60
2023/08/26 14:13:26;;;;;;;1.60;0.90;;;;;;;;;;5060592;27;87523;-60
2023/08/26 14:15:55;;;;;;;3.43;0.83;;;;;;;;;;5060452;27;87637;-61
2023/08/26 14:18:24;;;;;;;1.40;1.00;;;;;;;;;;5060705;27;88414;-60
2023/08/26 14:20:55;;;;;;;1.00;0.70;;;;;;;;;;5060173;27;89020;-60
2023/08/26 14:23:25;;;;;;;1.03;0.70;;;;;;;;;;5059667;27;88748;-60
2023/08/26 14:25:54;;;;;;;1.67;1.00;;;;;;;;;;5059766;27;87696;-60
2023/08/26 14:28:24;;;;;;;2.10;1.17;;;;;;;;;;5060916;27;88632;-60
2023/08/26 14:30:54;;;;;;;1.10;0.80;;;;;;;;;;5060560;27;88059;-60
2023/08/26 14:33:23;;;;;;;2.27;1.20;;;;;;;;;;5060466;27;88993;-60
2023/08/26 14:35:52;;;;;;;2.10;0.93;;;;;;;;;;5060526;27;87912;-60
2023/08/26 14:38:21;;;;;;;1.53;1.00;;;;;;;;;;5060575;27;88252;-59
2023/08/26 14:40:49;;;;;;;4.23;1.50;;;;;;;;;;5060525;27;88959;-59
2023/08/26 14:43:18;;;;;;;2.10;1.30;;;;;;;;;;5058929;27;88355;-59
2023/08/26 14:45:48;;;;;;;2.50;1.30;;;;;;;;;;5060199;27;87865;-59
2023/08/26 14:48:17;;;;;;;1.60;1.47;;;;;;;;;;5060518;27;88439;-59
2023/08/26 14:50:51;;;;;;;1.43;1.17;;;;;;;;;;5059955;27;88394;-59
2023/08/26 14:53:20;;;;;;;1.30;1.10;;;;;;;;;;5059876;27;87891;-60
2023/08/26 14:55:49;;;;;;;1.57;1.00;;;;;;;;;;5060964;27;87681;-59
2023/08/26 14:58:18;;;;;;;1.43;1.20;;;;;;;;;;5060194;27;89711;-59